createdAt,value
2022-08-11T00:01:54.552Z,99520.44
2022-08-11T00:04:23.718Z,99526.69
2022-08-11T00:06:54.919Z,99530.97
2022-08-11T00:09:24.718Z,99530.13
2022-08-11T00:11:53.915Z,99533.28
2022-08-11T00:14:36.929Z,99533.91
2022-08-11T00:17:08.898Z,99529.75
2022-08-11T00:20:12.207Z,99533.16
2022-08-11T00:22:26.632Z,99525.88
2022-08-11T00:24:58.513Z,99527.94
2022-08-11T00:27:34.888Z,99529.66
2022-08-11T00:30:03.001Z,99529.69
2022-08-11T00:32:32.328Z,99533.81
2022-08-11T00:35:51.249Z,99527.63
2022-08-11T00:37:50.572Z,99530.66
2022-08-11T00:40:24.674Z,99529.81
2022-08-11T00:43:01.726Z,99525.06
2022-08-11T00:45:35.079Z,99524.59
2022-08-11T00:48:06.614Z,99533.47
2022-08-11T00:50:42.354Z,99522.75
2022-08-11T00:53:33.867Z,99526.63
2022-08-11T00:56:43.585Z,99527.75
2022-08-11T00:59:46.345Z,99523.63
2022-08-11T01:02:17.880Z,99523.63
2022-08-11T01:05:23.294Z,99528.69
2022-08-11T01:08:26.538Z,99535.19
2022-08-11T01:11:24.220Z,99531.88
2022-08-11T01:14:33.918Z,99532.47
2022-08-11T01:17:14.808Z,99534.53
2022-08-11T01:20:47.009Z,99541.13
2022-08-11T01:23:43.153Z,99536.63
2022-08-11T01:26:44.468Z,99532.34
2022-08-11T01:29:49.476Z,99534.06
2022-08-11T01:32:50.001Z,99534.91
2022-08-11T01:35:41.668Z,99526.75
2022-08-11T01:38:39.758Z,99536.97
2022-08-11T01:41:48.268Z,99528.56
2022-08-11T01:44:53.328Z,99544.50
2022-08-11T01:47:52.403Z,99540.97
2022-08-11T01:50:37.250Z,99542.19
2022-08-11T01:53:22.835Z,99530.97
2022-08-11T01:55:57.878Z,99539.63
2022-08-11T01:58:43.196Z,99538.03
2022-08-11T02:01:29.736Z,99541.41
2022-08-11T02:04:00.753Z,99546.50
2022-08-11T02:06:53.050Z,99543.84
2022-08-11T02:09:30.558Z,99546.03
2022-08-11T02:12:03.979Z,99550.03
2022-08-11T02:14:38.813Z,99544.19
2022-08-11T02:17:15.285Z,99550.00
2022-08-11T02:20:09.426Z,99546.25
2022-08-11T02:23:01.213Z,99551.31
2022-08-11T02:25:32.682Z,99545.84
2022-08-11T02:28:04.317Z,99554.59
2022-08-11T02:30:36.198Z,99545.00
2022-08-11T02:33:24.966Z,99541.97
2022-08-11T02:36:02.447Z,99548.56
2022-08-11T02:38:35.667Z,99545.91
2022-08-11T02:41:30.591Z,99546.59
2022-08-11T02:44:13.244Z,99543.22
2022-08-11T02:46:48.827Z,99538.97
2022-08-11T02:50:02.662Z,99543.19
2022-08-11T02:52:38.946Z,99544.78
2022-08-11T02:55:46.974Z,99550.13
2022-08-11T02:58:15.791Z,99544.38
2022-08-11T03:00:48.567Z,99541.94
2022-08-11T03:03:20.302Z,99542.28
2022-08-11T03:06:00.274Z,99543.13
2022-08-11T03:08:40.572Z,99542.41
2022-08-11T03:11:41.637Z,99540.28
2022-08-11T03:14:34.533Z,99542.50
2022-08-11T03:17:07.715Z,99551.16
2022-08-11T03:20:00.878Z,99537.03
2022-08-11T03:22:37.854Z,99543.69
2022-08-11T03:25:13.064Z,99545.91
2022-08-11T03:27:49.482Z,99546.72
2022-08-11T03:30:22.769Z,99540.75
2022-08-11T03:33:16.648Z,99538.53
2022-08-11T03:35:56.587Z,99546.44
2022-08-11T03:38:30.436Z,99552.75
2022-08-11T03:42:01.120Z,99545.13
2022-08-11T03:44:24.548Z,99541.97
2022-08-11T03:47:07.920Z,99544.44
2022-08-11T03:49:44.416Z,99540.06
2022-08-11T03:52:18.302Z,99536.47
2022-08-11T03:54:56.399Z,99542.72
2022-08-11T03:57:51.311Z,99543.41
2022-08-11T04:00:37.377Z,99544.59
2022-08-11T04:06:43.348Z,99538.16
2022-08-11T04:09:49.663Z,99542.78
2022-08-11T04:12:45.732Z,99541.16
2022-08-11T04:15:42.680Z,99548.22
2022-08-11T04:18:57.178Z,99546.28
2022-08-11T04:22:18.381Z,99548.97
2022-08-11T04:25:00.362Z,99541.97
2022-08-11T04:27:54.947Z,99532.88
2022-08-11T04:30:28.944Z,99541.56
2022-08-11T04:33:36.451Z,99539.88
2022-08-11T04:36:13.882Z,99541.91
2022-08-11T04:39:05.195Z,99538.63
2022-08-11T04:42:15.163Z,99544.03
2022-08-11T04:45:21.543Z,99538.06
2022-08-11T04:48:09.339Z,99546.19
2022-08-11T04:51:24.441Z,99556.13
2022-08-11T04:54:19.120Z,99557.63
2022-08-11T04:57:05.866Z,99556.66
2022-08-11T05:00:27.751Z,99554.41
2022-08-11T05:03:29.587Z,99547.81
2022-08-11T05:06:18.678Z,99555.25
2022-08-11T05:09:24.539Z,99561.84
2022-08-11T05:12:03.995Z,99555.00
2022-08-11T05:14:52.410Z,99556.50
2022-08-11T05:17:43.690Z,99554.13
2022-08-11T05:20:30.278Z,99569.06
2022-08-11T05:23:20.249Z,99563.78
2022-08-11T05:26:43.242Z,99556.63
2022-08-11T05:29:20.081Z,99560.16
2022-08-11T05:32:10.378Z,99562.75
2022-08-11T05:34:51.789Z,99564.47
2022-08-11T05:37:27.272Z,99567.19
2022-08-11T05:40:16.160Z,99569.00
2022-08-11T05:43:07.764Z,99573.19
2022-08-11T05:46:03.704Z,99574.16
2022-08-11T05:48:52.424Z,99571.53
2022-08-11T05:51:37.655Z,99570.22
2022-08-11T05:54:28.535Z,99565.63
2022-08-11T05:57:00.829Z,99569.41
2022-08-11T05:59:29.898Z,99569.31
2022-08-11T06:02:02.355Z,99575.31
2022-08-11T06:04:30.541Z,99576.03
2022-08-11T06:06:59.131Z,99576.19
2022-08-11T06:09:29.557Z,99573.63
2022-08-11T06:12:01.687Z,99570.16
2022-08-11T06:14:31.564Z,99573.69
2022-08-11T06:17:01.172Z,99571.72
2022-08-11T06:19:34.660Z,99574.91
2022-08-11T06:22:03.847Z,99585.38
2022-08-11T06:24:32.868Z,99583.16
2022-08-11T06:27:12.278Z,99587.31
2022-08-11T06:29:55.027Z,99584.13
2022-08-11T06:32:25.905Z,99584.25
2022-08-11T06:35:13.817Z,99580.19
2022-08-11T06:37:47.161Z,99579.66
2022-08-11T06:40:32.548Z,99575.94
2022-08-11T06:43:04.401Z,99580.34
2022-08-11T06:45:38.115Z,99594.59
2022-08-11T06:48:06.533Z,99590.00
2022-08-11T06:50:52.571Z,99579.91
2022-08-11T06:53:21.263Z,99586.03
2022-08-11T06:56:07.888Z,99578.56
2022-08-11T06:58:55.238Z,99583.28
2022-08-11T07:01:46.707Z,99589.88
2022-08-11T07:04:23.424Z,99584.81
2022-08-11T07:07:16.738Z,99582.50
2022-08-11T07:10:20.308Z,99585.69
2022-08-11T07:13:09.126Z,99577.25
2022-08-11T07:16:11.702Z,99581.91
2022-08-11T07:19:01.253Z,99569.34
2022-08-11T07:22:02.435Z,99582.22
2022-08-11T07:25:06.612Z,99584.22
2022-08-11T07:27:52.530Z,99583.81
2022-08-11T07:30:20.250Z,99576.19
2022-08-11T07:32:51.428Z,99573.81
2022-08-11T07:35:23.632Z,99568.56
2022-08-11T07:38:01.819Z,99561.47
2022-08-11T07:40:30.469Z,99568.00
2022-08-11T07:42:58.867Z,99571.25
2022-08-11T07:45:45.545Z,99562.63
2022-08-11T07:48:31.380Z,99570.97
2022-08-11T07:51:18.551Z,99562.75
2022-08-11T07:54:03.077Z,99561.91
2022-08-11T07:56:55.576Z,99555.09
2022-08-11T07:59:57.585Z,99548.25
2022-08-11T08:02:46.624Z,99551.84
2022-08-11T08:05:33.610Z,99559.34
2022-08-11T08:08:20.773Z,99556.75
2022-08-11T08:11:06.070Z,99559.84
2022-08-11T08:13:51.968Z,99563.25
2022-08-11T08:16:38.198Z,99561.41
2022-08-11T08:19:06.406Z,99556.72
2022-08-11T08:21:34.282Z,99567.34
2022-08-11T08:24:04.857Z,99564.19
2022-08-11T08:26:51.749Z,99566.25
2022-08-11T08:29:38.896Z,99569.31
2022-08-11T08:32:08.512Z,99568.66
2022-08-11T08:34:36.807Z,99567.91
2022-08-11T08:37:16.276Z,99564.94
2022-08-11T08:39:55.313Z,99570.28
2022-08-11T08:42:32.241Z,99558.25
2022-08-11T08:45:03.441Z,99559.94
2022-08-11T08:47:42.032Z,99554.97
2022-08-11T08:50:16.358Z,99558.97
2022-08-11T08:52:50.599Z,99552.19
2022-08-11T08:55:21.118Z,99563.63
2022-08-11T08:57:51.215Z,99568.31
2022-08-11T09:00:23.405Z,99561.44
2022-08-11T09:02:53.032Z,99563.31
2022-08-11T09:05:21.372Z,99555.59
2022-08-11T09:07:53.430Z,99561.84
2022-08-11T09:10:22.988Z,99565.03
2022-08-11T09:12:51.561Z,99558.06
2022-08-11T09:15:20.150Z,99565.41
2022-08-11T09:17:49.793Z,99564.13
2022-08-11T09:20:21.166Z,99563.19
2022-08-11T09:24:07.495Z,99557.97
2022-08-11T09:26:17.053Z,99564.09
2022-08-11T09:28:46.121Z,99556.38
2022-08-11T09:31:14.597Z,99558.66
2022-08-11T09:33:43.925Z,99557.88
2022-08-11T09:36:31.226Z,99558.44
2022-08-11T09:39:17.342Z,99558.13
2022-08-11T09:42:00.730Z,99564.06
2022-08-11T09:44:48.860Z,99556.09
2022-08-11T09:47:24.269Z,99555.16
2022-08-11T09:49:53.884Z,99564.59
2022-08-11T09:52:22.260Z,99561.69
2022-08-11T09:54:51.093Z,99554.13
2022-08-11T09:57:41.360Z,99552.94
2022-08-11T10:00:13.335Z,99552.03
2022-08-11T10:02:44.962Z,99547.66
2022-08-11T10:05:33.713Z,99552.22
2022-08-11T10:08:02.395Z,99551.88
2022-08-11T10:10:31.117Z,99546.84
2022-08-11T10:13:05.097Z,99547.53
2022-08-11T10:15:59.988Z,99550.56
2022-08-11T10:18:49.349Z,99547.34
2022-08-11T10:21:28.394Z,99544.47
2022-08-11T10:24:15.576Z,99526.06
2022-08-11T10:26:54.465Z,99533.16
2022-08-11T10:29:45.464Z,99532.16
2022-08-11T10:32:49.434Z,99532.28
2022-08-11T10:35:27.607Z,99532.81
2022-08-11T10:38:08.084Z,99537.56
2022-08-11T10:40:39.111Z,99518.09
2022-08-11T10:43:07.108Z,99529.97
2022-08-11T10:45:55.545Z,99523.84
2022-08-11T10:48:25.375Z,99529.44
2022-08-11T10:51:11.287Z,99511.81
2022-08-11T10:54:00.023Z,99521.97
2022-08-11T10:56:46.295Z,99503.47
2022-08-11T10:59:14.475Z,99498.53
2022-08-11T11:01:46.062Z,99500.06
2022-08-11T11:04:15.776Z,99497.38
2022-08-11T11:06:50.563Z,99491.59
2022-08-11T11:09:21.435Z,99491.00
2022-08-11T11:12:09.859Z,99492.69
2022-08-11T11:14:59.073Z,99480.66
2022-08-11T11:18:04.669Z,99493.38
2022-08-11T11:20:38.638Z,99485.06
2022-08-11T11:23:11.336Z,99484.84
2022-08-11T11:26:07.554Z,99468.06
2022-08-11T11:28:48.994Z,99469.16
2022-08-11T11:31:28.633Z,99462.28
2022-08-11T11:34:14.421Z,99467.91
2022-08-11T11:36:47.107Z,99461.44
2022-08-11T11:39:15.099Z,99465.31
2022-08-11T11:41:43.459Z,99466.78
2022-08-11T11:44:14.738Z,99462.75
2022-08-11T11:46:45.510Z,99454.09
2022-08-11T11:49:17.061Z,99453.75
2022-08-11T11:51:45.944Z,99452.78
2022-08-11T11:54:18.845Z,99455.69
2022-08-11T11:56:47.585Z,99447.41
2022-08-11T11:59:39.270Z,99447.25
2022-08-11T12:02:07.633Z,99448.56
2022-08-11T12:04:42.932Z,99437.09
2022-08-11T12:07:28.902Z,99432.88
2022-08-11T12:09:57.491Z,99436.91
2022-08-11T12:12:43.775Z,99432.34
2022-08-11T12:15:12.966Z,99427.00
2022-08-11T12:17:41.223Z,99422.00
2022-08-11T12:20:31.791Z,99424.25
2022-08-11T12:23:17.433Z,99413.31
2022-08-11T12:26:26.319Z,99404.44
2022-08-11T12:28:51.551Z,99409.50
2022-08-11T12:31:22.970Z,99405.22
2022-08-11T12:33:50.932Z,99402.28
2022-08-11T12:36:21.518Z,99392.16
2022-08-11T12:38:51.770Z,99395.25
2022-08-11T12:41:37.804Z,99382.94
2022-08-11T12:44:39.154Z,99388.59
2022-08-11T12:47:07.403Z,99389.72
2022-08-11T12:49:55.165Z,99394.03
2022-08-11T12:52:27.770Z,99378.72
2022-08-11T12:55:00.011Z,99384.47
2022-08-11T12:57:49.807Z,99383.97
2022-08-11T13:00:36.457Z,99378.47
2022-08-11T13:03:23.125Z,99371.06
2022-08-11T13:05:53.631Z,99362.41
2022-08-11T13:08:24.910Z,99352.09
2022-08-11T13:11:11.205Z,99376.88
2022-08-11T13:13:54.907Z,99365.34
2022-08-11T13:16:26.664Z,99372.19
2022-08-11T13:18:54.556Z,99362.88
2022-08-11T13:21:23.742Z,99363.91
2022-08-11T13:24:00.537Z,99354.94
2022-08-11T13:26:37.464Z,99358.94
2022-08-11T13:29:18.097Z,99354.75
2022-08-11T13:31:47.017Z,99354.63
2022-08-11T13:34:16.366Z,99350.78
2022-08-11T13:36:44.807Z,99344.59
2022-08-11T13:39:14.787Z,99340.34
2022-08-11T13:41:45.292Z,99342.41
2022-08-11T13:44:20.240Z,99335.31
2022-08-11T13:46:53.366Z,99330.06
2022-08-11T13:49:22.277Z,99340.00
2022-08-11T13:51:50.702Z,99331.69
2022-08-11T13:54:23.126Z,99323.03
2022-08-11T13:56:53.656Z,99321.53
2022-08-11T13:59:29.663Z,99321.03
2022-08-11T14:02:20.482Z,99318.13
2022-08-11T14:04:52.357Z,99318.06
2022-08-11T14:07:23.405Z,99318.44
2022-08-11T14:09:57.237Z,99310.38
2022-08-11T14:12:45.317Z,99303.41
2022-08-11T14:15:19.846Z,99298.44
2022-08-11T14:17:51.627Z,99294.22
2022-08-11T14:20:39.304Z,99299.84
2022-08-11T14:23:08.729Z,99283.47
2022-08-11T14:26:00.868Z,99290.41
2022-08-11T14:28:35.152Z,99291.97
2022-08-11T14:31:06.258Z,99270.28
2022-08-11T14:33:53.581Z,99277.19
2022-08-11T14:36:23.984Z,99267.34
2022-08-11T14:38:53.503Z,99262.16
2022-08-11T14:42:11.155Z,99269.41
2022-08-11T14:44:49.422Z,99272.13
2022-08-11T14:47:24.350Z,99260.16
2022-08-11T14:50:09.609Z,99264.81
2022-08-11T14:52:41.390Z,99262.94
2022-08-11T14:55:26.797Z,99252.88
2022-08-11T14:57:57.384Z,99260.78
2022-08-11T15:00:26.337Z,99256.78
2022-08-11T15:03:13.668Z,99247.69
2022-08-11T15:05:55.773Z,99233.38
2022-08-11T15:08:41.744Z,99233.72
2022-08-11T15:11:31.651Z,99240.25
2022-08-11T15:14:03.082Z,99251.53
2022-08-11T15:16:49.154Z,99243.03
2022-08-11T15:19:19.581Z,99247.25
2022-08-11T15:22:04.997Z,99237.97
2022-08-11T15:24:35.296Z,99238.09
2022-08-11T15:27:23.692Z,99230.00
2022-08-11T15:30:10.660Z,99236.88
2022-08-11T15:33:06.736Z,99229.66
2022-08-11T15:35:53.111Z,99223.25
2022-08-11T15:38:21.396Z,99221.84
2022-08-11T15:41:07.380Z,99228.56
2022-08-11T15:43:57.756Z,99215.34
2022-08-11T15:46:31.772Z,99214.91
2022-08-11T15:49:01.285Z,99214.13
2022-08-11T15:51:34.942Z,99212.31
2022-08-11T15:54:09.260Z,99212.19
2022-08-11T15:56:39.489Z,99210.88
2022-08-11T15:59:42.133Z,99209.72
2022-08-11T16:02:27.918Z,99208.41
2022-08-11T16:04:56.613Z,99204.66
2022-08-11T16:07:28.367Z,99194.03
2022-08-11T16:10:01.057Z,99194.88
2022-08-11T16:12:32.014Z,99201.75
2022-08-11T16:15:20.827Z,99201.75
2022-08-11T16:17:51.537Z,99208.34
2022-08-11T16:20:22.553Z,99192.69
2022-08-11T16:23:00.455Z,99193.31
2022-08-11T16:27:02.158Z,99188.13
2022-08-11T16:28:20.713Z,99190.72
2022-08-11T16:30:48.975Z,99187.63
2022-08-11T16:33:48.954Z,99180.56
2022-08-11T16:36:25.056Z,99180.09
2022-08-11T16:38:53.942Z,99175.97
2022-08-11T16:41:37.916Z,99169.22
2022-08-11T16:44:37.076Z,99178.94
2022-08-11T16:47:07.189Z,99174.28
2022-08-11T16:49:38.039Z,99166.81
2022-08-11T16:52:11.050Z,99171.31
2022-08-11T16:54:40.284Z,99178.19
2022-08-11T16:57:32.460Z,99173.00
2022-08-11T17:00:04.720Z,99169.84
2022-08-11T17:02:51.879Z,99169.66
2022-08-11T17:05:54.514Z,99165.34
2022-08-11T17:08:57.683Z,99164.25
2022-08-11T17:11:45.555Z,99171.66
2022-08-11T17:14:16.474Z,99167.63
2022-08-11T17:16:49.092Z,99164.91
2022-08-11T17:20:40.391Z,99161.25
2022-08-11T17:22:29.440Z,99158.72
2022-08-11T17:24:57.504Z,99156.41
2022-08-11T17:27:25.586Z,99155.00
2022-08-11T17:29:57.733Z,99153.69
2022-08-11T17:32:55.615Z,99156.28
2022-08-11T17:35:31.980Z,99153.13
2022-08-11T17:38:04.856Z,99146.00
2022-08-11T17:40:37.038Z,99151.91
2022-08-11T17:43:23.583Z,99152.69
2022-08-11T17:46:08.920Z,99156.06
2022-08-11T17:48:47.381Z,99164.94
2022-08-11T17:51:38.948Z,99164.28
2022-08-11T17:54:25.978Z,99165.13
2022-08-11T17:57:20.434Z,99162.94
2022-08-11T17:59:53.393Z,99161.69
2022-08-11T18:02:41.480Z,99164.22
2022-08-11T18:05:13.472Z,99167.97
2022-08-11T18:07:59.935Z,99168.28
2022-08-11T18:10:48.050Z,99164.47
2022-08-11T18:13:34.007Z,99165.91
2022-08-11T18:16:19.832Z,99172.59
2022-08-11T18:19:05.213Z,99175.00
2022-08-11T18:22:07.822Z,99173.00
2022-08-11T18:24:57.065Z,99174.41
2022-08-11T18:27:44.603Z,99176.63
2022-08-11T18:30:30.418Z,99180.19
2022-08-11T18:33:45.061Z,99177.72
2022-08-11T18:36:23.573Z,99177.41
2022-08-11T18:39:08.903Z,99177.81
2022-08-11T18:41:54.910Z,99179.34
2022-08-11T18:44:44.794Z,99182.09
2022-08-11T18:47:32.626Z,99185.50
2022-08-11T18:50:30.578Z,99180.25
2022-08-11T18:53:24.780Z,99172.31
2022-08-11T18:56:11.078Z,99175.03
2022-08-11T18:59:00.885Z,99172.16
2022-08-11T19:01:48.010Z,99175.16
2022-08-11T19:04:37.918Z,99178.88
2022-08-11T19:07:24.077Z,99180.22
2022-08-11T19:10:09.849Z,99179.72
2022-08-11T19:12:57.792Z,99184.91
2022-08-11T19:15:43.557Z,99192.53
2022-08-11T19:18:33.973Z,99191.69
2022-08-11T19:21:19.745Z,99194.88
2022-08-11T19:24:08.572Z,99195.38
2022-08-11T19:26:54.494Z,99196.38
2022-08-11T19:30:05.233Z,99192.97
2022-08-11T19:32:47.653Z,99202.38
2022-08-11T19:35:34.784Z,99203.38
2022-08-11T19:38:21.676Z,99198.59
2022-08-11T19:41:07.557Z,99200.13
2022-08-11T19:43:54.065Z,99203.31
2022-08-11T19:46:41.326Z,99201.91
2022-08-11T19:49:27.096Z,99210.44
2022-08-11T19:52:14.826Z,99197.94
2022-08-11T19:55:00.858Z,99198.47
2022-08-11T19:57:46.229Z,99195.94
2022-08-11T20:00:34.275Z,99205.56
2022-08-11T20:03:22.339Z,99206.84
2022-08-11T20:06:08.366Z,99209.50
2022-08-11T20:08:58.789Z,99213.53
2022-08-11T20:11:44.886Z,99211.00
2022-08-11T20:14:30.648Z,99221.78
2022-08-11T20:17:16.500Z,99216.41
2022-08-11T20:20:01.952Z,99217.03
2022-08-11T20:22:48.611Z,99226.28
2022-08-11T20:25:35.861Z,99236.59
2022-08-11T20:28:22.138Z,99237.16
2022-08-11T20:31:08.384Z,99237.38
2022-08-11T20:33:54.268Z,99243.47
2022-08-11T20:36:39.465Z,99239.25
2022-08-11T20:39:25.565Z,99236.22
2022-08-11T20:42:12.714Z,99240.56
2022-08-11T20:44:57.923Z,99237.88
2022-08-11T20:47:59.101Z,99241.97
2022-08-11T20:50:46.668Z,99241.44
2022-08-11T20:53:35.837Z,99236.13
2022-08-11T20:56:22.680Z,99242.84
2022-08-11T20:59:17.863Z,99232.69
2022-08-11T21:02:04.509Z,99235.22
2022-08-11T21:04:55.128Z,99239.13
2022-08-11T21:07:41.854Z,99232.50
2022-08-11T21:10:29.259Z,99242.56
2022-08-11T21:13:25.818Z,99238.94
2022-08-11T21:16:26.448Z,99242.88
2022-08-11T21:19:16.285Z,99238.25
2022-08-11T21:22:03.856Z,99231.16
2022-08-11T21:24:49.929Z,99242.56
2022-08-11T21:27:36.654Z,99248.25
2022-08-11T21:30:22.513Z,99250.69
2022-08-11T21:33:09.049Z,99247.91
2022-08-11T21:35:54.488Z,99251.44
2022-08-11T21:38:40.271Z,99247.06
2022-08-11T21:41:25.667Z,99246.38
2022-08-11T21:44:11.170Z,99242.75
2022-08-11T21:46:57.408Z,99243.41
2022-08-11T21:49:45.168Z,99244.13
2022-08-11T21:52:30.541Z,99252.97
2022-08-11T21:55:16.479Z,99247.41
2022-08-11T21:58:02.346Z,99250.75
2022-08-11T22:00:47.683Z,99246.38
2022-08-11T22:03:49.453Z,99255.94
2022-08-11T22:06:37.337Z,99246.44
2022-08-11T22:09:22.889Z,99248.22
2022-08-11T22:12:33.402Z,99247.22
2022-08-11T22:15:13.717Z,99243.78
2022-08-11T22:17:59.017Z,99247.63
2022-08-11T22:20:45.349Z,99240.91
2022-08-11T22:23:36.036Z,99253.94
2022-08-11T22:26:21.913Z,99257.50
2022-08-11T22:29:08.040Z,99246.78
2022-08-11T22:31:54.608Z,99250.88
2022-08-11T22:34:53.121Z,99255.69
2022-08-11T22:37:39.817Z,99258.09
2022-08-11T22:40:28.336Z,99255.13
2022-08-11T22:43:13.855Z,99248.34
2022-08-11T22:45:59.370Z,99250.16
2022-08-11T22:48:45.548Z,99251.59
2022-08-11T22:51:31.686Z,99252.44
2022-08-11T22:54:19.130Z,99250.31
2022-08-11T22:57:07.059Z,99247.78
2022-08-11T22:59:53.860Z,99250.75
2022-08-11T23:02:39.603Z,99246.50
2022-08-11T23:05:27.289Z,99250.19
2022-08-11T23:08:13.074Z,99255.56
2022-08-11T23:10:58.978Z,99255.44
2022-08-11T23:13:45.662Z,99256.84
2022-08-11T23:16:31.601Z,99259.25
2022-08-11T23:20:03.821Z,99252.75
2022-08-11T23:22:22.864Z,99250.91
2022-08-11T23:25:19.208Z,99251.63
2022-08-11T23:28:04.897Z,99246.38
2022-08-11T23:30:52.635Z,99247.09
2022-08-11T23:33:39.143Z,99246.66
2022-08-11T23:36:35.829Z,99253.75
2022-08-11T23:39:29.644Z,99247.09
2022-08-11T23:42:15.542Z,99244.25
2022-08-11T23:45:01.324Z,99243.50
2022-08-11T23:47:51.194Z,99241.13
2022-08-11T23:50:37.589Z,99244.81
2022-08-11T23:53:23.560Z,99240.44
2022-08-11T23:56:09.230Z,99239.88
2022-08-11T23:58:56.236Z,99233.16
